sensor_id;sensor_type;location;lat;lon;timestamp;P1;durP1;ratioP1;P2;durP2;ratioP2
15363;SDS011;7781;49.690;6.472;2023-07-20T00:01:48;2.73;;;1.80;;
15363;SDS011;7781;49.690;6.472;2023-07-20T00:04:35;2.47;;;1.70;;
15363;SDS011;7781;49.690;6.472;2023-07-20T00:07:05;6.27;;;2.40;;
15363;SDS011;7781;49.690;6.472;2023-07-20T00:09:34;2.73;;;1.73;;
15363;SDS011;7781;49.690;6.472;2023-07-20T00:12:07;3.90;;;2.33;;
15363;SDS011;7781;49.690;6.472;2023-07-20T00:14:37;2.60;;;1.90;;
15363;SDS011;7781;49.690;6.472;2023-07-20T00:17:08;4.93;;;2.20;;
15363;SDS011;7781;49.690;6.472;2023-07-20T00:19:37;3.20;;;1.83;;
15363;SDS011;7781;49.690;6.472;2023-07-20T00:22:09;3.83;;;2.00;;
15363;SDS011;7781;49.690;6.472;2023-07-20T00:24:40;4.37;;;2.30;;
15363;SDS011;7781;49.690;6.472;2023-07-20T00:27:10;9.37;;;2.80;;
15363;SDS011;7781;49.690;6.472;2023-07-20T00:29:39;7.43;;;2.20;;
15363;SDS011;7781;49.690;6.472;2023-07-20T00:32:08;3.80;;;1.90;;
15363;SDS011;7781;49.690;6.472;2023-07-20T00:34:37;2.70;;;1.93;;
15363;SDS011;7781;49.690;6.472;2023-07-20T00:37:07;3.83;;;2.07;;
15363;SDS011;7781;49.690;6.472;2023-07-20T00:39:37;1.90;;;1.63;;
15363;SDS011;7781;49.690;6.472;2023-07-20T00:42:06;3.20;;;2.20;;
15363;SDS011;7781;49.690;6.472;2023-07-20T00:44:36;3.33;;;1.93;;
15363;SDS011;7781;49.690;6.472;2023-07-20T00:47:06;3.63;;;1.93;;
15363;SDS011;7781;49.690;6.472;2023-07-20T00:49:35;1.97;;;1.77;;
15363;SDS011;7781;49.690;6.472;2023-07-20T00:52:05;2.07;;;1.87;;
15363;SDS011;7781;49.690;6.472;2023-07-20T00:54:36;5.27;;;1.93;;
15363;SDS011;7781;49.690;6.472;2023-07-20T00:57:06;3.03;;;1.87;;
15363;SDS011;7781;49.690;6.472;2023-07-20T00:59:37;6.07;;;2.13;;
15363;SDS011;7781;49.690;6.472;2023-07-20T01:02:06;5.10;;;2.40;;
15363;SDS011;7781;49.690;6.472;2023-07-20T01:04:35;6.10;;;3.57;;
15363;SDS011;7781;49.690;6.472;2023-07-20T01:07:08;6.40;;;2.17;;
15363;SDS011;7781;49.690;6.472;2023-07-20T01:09:46;6.60;;;2.37;;
15363;SDS011;7781;49.690;6.472;2023-07-20T01:12:22;2.53;;;1.87;;
15363;SDS011;7781;49.690;6.472;2023-07-20T01:14:57;4.53;;;2.20;;
15363;SDS011;7781;49.690;6.472;2023-07-20T01:17:26;6.20;;;1.90;;
15363;SDS011;7781;49.690;6.472;2023-07-20T01:19:55;3.53;;;2.10;;
15363;SDS011;7781;49.690;6.472;2023-07-20T01:22:30;3.80;;;2.10;;
15363;SDS011;7781;49.690;6.472;2023-07-20T01:25:26;2.47;;;2.00;;
15363;SDS011;7781;49.690;6.472;2023-07-20T01:28:09;3.10;;;2.30;;
15363;SDS011;7781;49.690;6.472;2023-07-20T01:30:55;3.47;;;2.10;;
15363;SDS011;7781;49.690;6.472;2023-07-20T01:33:29;5.63;;;2.20;;
15363;SDS011;7781;49.690;6.472;2023-07-20T01:36:01;4.77;;;2.00;;
15363;SDS011;7781;49.690;6.472;2023-07-20T01:38:32;5.77;;;2.20;;
15363;SDS011;7781;49.690;6.472;2023-07-20T01:41:01;6.43;;;1.90;;
15363;SDS011;7781;49.690;6.472;2023-07-20T01:43:30;4.77;;;2.33;;
15363;SDS011;7781;49.690;6.472;2023-07-20T01:45:59;2.17;;;1.97;;
15363;SDS011;7781;49.690;6.472;2023-07-20T01:48:30;2.57;;;1.83;;
15363;SDS011;7781;49.690;6.472;2023-07-20T01:50:59;5.27;;;2.23;;
15363;SDS011;7781;49.690;6.472;2023-07-20T01:53:28;3.30;;;2.17;;
15363;SDS011;7781;49.690;6.472;2023-07-20T01:55:57;3.00;;;1.70;;
15363;SDS011;7781;49.690;6.472;2023-07-20T01:58:28;4.03;;;2.10;;
15363;SDS011;7781;49.690;6.472;2023-07-20T02:00:58;4.53;;;2.10;;
15363;SDS011;7781;49.690;6.472;2023-07-20T02:03:27;6.17;;;2.37;;
15363;SDS011;7781;49.690;6.472;2023-07-20T02:05:58;3.27;;;1.90;;
15363;SDS011;7781;49.690;6.472;2023-07-20T02:08:28;3.80;;;2.40;;
15363;SDS011;7781;49.690;6.472;2023-07-20T02:10:56;6.13;;;2.40;;
15363;SDS011;7781;49.690;6.472;2023-07-20T02:13:25;4.37;;;1.53;;
15363;SDS011;7781;49.690;6.472;2023-07-20T02:15:54;4.83;;;2.30;;
15363;SDS011;7781;49.690;6.472;2023-07-20T02:18:24;5.40;;;2.40;;
15363;SDS011;7781;49.690;6.472;2023-07-20T02:24:44;4.37;;;2.23;;
15363;SDS011;7781;49.690;6.472;2023-07-20T02:27:13;7.83;;;2.30;;
15363;SDS011;7781;49.690;6.472;2023-07-20T02:29:42;6.17;;;2.30;;
15363;SDS011;7781;49.690;6.472;2023-07-20T02:32:11;5.57;;;2.43;;
15363;SDS011;7781;49.690;6.472;2023-07-20T02:34:41;2.00;;;1.80;;
15363;SDS011;7781;49.690;6.472;2023-07-20T02:37:09;12.37;;;2.50;;
15363;SDS011;7781;49.690;6.472;2023-07-20T02:39:41;5.60;;;2.10;;
15363;SDS011;7781;49.690;6.472;2023-07-20T02:42:11;4.03;;;2.60;;
15363;SDS011;7781;49.690;6.472;2023-07-20T02:44:40;6.17;;;2.37;;
15363;SDS011;7781;49.690;6.472;2023-07-20T02:47:10;3.33;;;1.90;;
15363;SDS011;7781;49.690;6.472;2023-07-20T02:49:39;3.07;;;2.20;;
15363;SDS011;7781;49.690;6.472;2023-07-20T02:52:08;6.20;;;2.20;;
15363;SDS011;7781;49.690;6.472;2023-07-20T02:54:38;2.87;;;2.20;;
15363;SDS011;7781;49.690;6.472;2023-07-20T02:57:08;9.20;;;2.37;;
15363;SDS011;7781;49.690;6.472;2023-07-20T02:59:37;6.90;;;2.47;;
15363;SDS011;7781;49.690;6.472;2023-07-20T03:02:06;3.20;;;2.40;;
15363;SDS011;7781;49.690;6.472;2023-07-20T03:04:36;1.93;;;1.83;;
15363;SDS011;7781;49.690;6.472;2023-07-20T03:07:06;3.10;;;2.20;;
15363;SDS011;7781;49.690;6.472;2023-07-20T03:09:35;2.20;;;2.00;;
15363;SDS011;7781;49.690;6.472;2023-07-20T03:12:06;5.80;;;2.13;;
15363;SDS011;7781;49.690;6.472;2023-07-20T03:14:40;11.33;;;2.13;;
15363;SDS011;7781;49.690;6.472;2023-07-20T03:17:08;4.10;;;2.20;;
15363;SDS011;7781;49.690;6.472;2023-07-20T03:19:38;4.07;;;2.40;;
15363;SDS011;7781;49.690;6.472;2023-07-20T03:22:07;3.03;;;1.90;;
15363;SDS011;7781;49.690;6.472;2023-07-20T03:24:36;3.23;;;2.10;;
15363;SDS011;7781;49.690;6.472;2023-07-20T03:27:06;5.50;;;2.27;;
15363;SDS011;7781;49.690;6.472;2023-07-20T03:29:36;5.30;;;2.20;;
15363;SDS011;7781;49.690;6.472;2023-07-20T03:32:05;5.67;;;2.30;;
15363;SDS011;7781;49.690;6.472;2023-07-20T03:34:34;3.93;;;2.97;;
15363;SDS011;7781;49.690;6.472;2023-07-20T03:37:04;3.53;;;2.27;;
15363;SDS011;7781;49.690;6.472;2023-07-20T03:39:33;9.43;;;2.17;;
15363;SDS011;7781;49.690;6.472;2023-07-20T03:42:03;3.77;;;2.10;;
15363;SDS011;7781;49.690;6.472;2023-07-20T03:44:33;3.73;;;2.13;;
15363;SDS011;7781;49.690;6.472;2023-07-20T03:47:04;3.50;;;2.03;;
15363;SDS011;7781;49.690;6.472;2023-07-20T03:49:34;2.57;;;2.03;;
15363;SDS011;7781;49.690;6.472;2023-07-20T03:52:03;5.10;;;2.10;;
15363;SDS011;7781;49.690;6.472;2023-07-20T03:54:32;5.50;;;2.20;;
15363;SDS011;7781;49.690;6.472;2023-07-20T03:57:01;4.37;;;2.70;;
15363;SDS011;7781;49.690;6.472;2023-07-20T03:59:29;3.57;;;2.13;;
15363;SDS011;7781;49.690;6.472;2023-07-20T04:01:57;4.13;;;2.50;;
15363;SDS011;7781;49.690;6.472;2023-07-20T04:04:28;5.83;;;2.30;;
15363;SDS011;7781;49.690;6.472;2023-07-20T04:06:57;3.03;;;2.00;;
15363;SDS011;7781;49.690;6.472;2023-07-20T04:09:25;2.90;;;1.90;;
15363;SDS011;7781;49.690;6.472;2023-07-20T04:11:54;3.33;;;2.30;;
15363;SDS011;7781;49.690;6.472;2023-07-20T04:17:15;5.07;;;2.20;;
15363;SDS011;7781;49.690;6.472;2023-07-20T04:19:46;3.27;;;2.00;;
15363;SDS011;7781;49.690;6.472;2023-07-20T04:22:15;4.40;;;1.80;;
15363;SDS011;7781;49.690;6.472;2023-07-20T04:24:44;4.03;;;2.40;;
15363;SDS011;7781;49.690;6.472;2023-07-20T04:27:13;4.13;;;2.13;;
15363;SDS011;7781;49.690;6.472;2023-07-20T04:29:42;7.53;;;2.40;;
15363;SDS011;7781;49.690;6.472;2023-07-20T04:32:12;5.13;;;2.27;;
15363;SDS011;7781;49.690;6.472;2023-07-20T04:34:41;2.60;;;2.10;;
15363;SDS011;7781;49.690;6.472;2023-07-20T04:37:12;5.70;;;2.50;;
15363;SDS011;7781;49.690;6.472;2023-07-20T04:39:41;6.50;;;2.37;;
15363;SDS011;7781;49.690;6.472;2023-07-20T04:42:10;4.57;;;2.23;;
15363;SDS011;7781;49.690;6.472;2023-07-20T04:44:39;4.07;;;2.20;;
15363;SDS011;7781;49.690;6.472;2023-07-20T04:47:09;2.40;;;2.20;;
15363;SDS011;7781;49.690;6.472;2023-07-20T04:49:38;7.00;;;2.60;;
15363;SDS011;7781;49.690;6.472;2023-07-20T04:52:07;4.87;;;3.27;;
15363;SDS011;7781;49.690;6.472;2023-07-20T04:54:37;6.67;;;2.33;;
15363;SDS011;7781;49.690;6.472;2023-07-20T04:57:09;7.60;;;2.43;;
15363;SDS011;7781;49.690;6.472;2023-07-20T04:59:47;3.53;;;2.63;;
15363;SDS011;7781;49.690;6.472;2023-07-20T05:02:16;2.80;;;2.23;;
15363;SDS011;7781;49.690;6.472;2023-07-20T05:04:45;5.17;;;2.87;;
15363;SDS011;7781;49.690;6.472;2023-07-20T05:07:14;2.80;;;2.43;;
15363;SDS011;7781;49.690;6.472;2023-07-20T05:09:45;6.00;;;2.97;;
15363;SDS011;7781;49.690;6.472;2023-07-20T05:12:13;4.90;;;2.80;;
15363;SDS011;7781;49.690;6.472;2023-07-20T05:14:46;3.83;;;2.73;;
15363;SDS011;7781;49.690;6.472;2023-07-20T05:17:15;4.80;;;2.97;;
15363;SDS011;7781;49.690;6.472;2023-07-20T05:19:45;4.57;;;3.00;;
15363;SDS011;7781;49.690;6.472;2023-07-20T05:22:14;4.70;;;2.70;;
15363;SDS011;7781;49.690;6.472;2023-07-20T05:24:43;4.00;;;3.20;;
15363;SDS011;7781;49.690;6.472;2023-07-20T05:27:13;4.10;;;3.00;;
15363;SDS011;7781;49.690;6.472;2023-07-20T05:29:43;5.97;;;3.03;;
15363;SDS011;7781;49.690;6.472;2023-07-20T05:32:13;9.00;;;3.17;;
15363;SDS011;7781;49.690;6.472;2023-07-20T05:34:42;4.70;;;3.00;;
15363;SDS011;7781;49.690;6.472;2023-07-20T05:37:12;11.10;;;3.63;;
15363;SDS011;7781;49.690;6.472;2023-07-20T05:39:40;4.57;;;2.80;;
15363;SDS011;7781;49.690;6.472;2023-07-20T05:42:11;5.10;;;3.10;;
15363;SDS011;7781;49.690;6.472;2023-07-20T05:44:40;3.77;;;2.50;;
15363;SDS011;7781;49.690;6.472;2023-07-20T05:47:09;7.47;;;3.10;;
15363;SDS011;7781;49.690;6.472;2023-07-20T05:49:37;6.43;;;2.70;;
15363;SDS011;7781;49.690;6.472;2023-07-20T05:52:07;4.67;;;2.67;;
15363;SDS011;7781;49.690;6.472;2023-07-20T05:54:36;11.33;;;2.90;;
15363;SDS011;7781;49.690;6.472;2023-07-20T05:57:05;5.87;;;2.80;;
15363;SDS011;7781;49.690;6.472;2023-07-20T05:59:35;7.37;;;3.03;;
15363;SDS011;7781;49.690;6.472;2023-07-20T06:02:06;5.27;;;2.43;;
15363;SDS011;7781;49.690;6.472;2023-07-20T06:04:35;4.07;;;2.80;;
15363;SDS011;7781;49.690;6.472;2023-07-20T06:07:06;6.20;;;2.30;;
15363;SDS011;7781;49.690;6.472;2023-07-20T06:09:36;3.50;;;2.20;;
15363;SDS011;7781;49.690;6.472;2023-07-20T06:12:05;7.60;;;3.03;;
15363;SDS011;7781;49.690;6.472;2023-07-20T06:14:36;5.83;;;2.37;;
15363;SDS011;7781;49.690;6.472;2023-07-20T06:17:05;6.30;;;2.60;;
15363;SDS011;7781;49.690;6.472;2023-07-20T06:19:33;7.20;;;2.60;;
15363;SDS011;7781;49.690;6.472;2023-07-20T06:22:02;8.53;;;2.27;;
15363;SDS011;7781;49.690;6.472;2023-07-20T06:24:30;3.13;;;2.33;;
15363;SDS011;7781;49.690;6.472;2023-07-20T06:26:59;3.80;;;2.30;;
15363;SDS011;7781;49.690;6.472;2023-07-20T06:29:29;3.87;;;2.60;;
15363;SDS011;7781;49.690;6.472;2023-07-20T06:31:59;8.70;;;2.30;;
15363;SDS011;7781;49.690;6.472;2023-07-20T06:34:28;2.77;;;2.00;;
15363;SDS011;7781;49.690;6.472;2023-07-20T06:36:57;2.70;;;2.17;;
15363;SDS011;7781;49.690;6.472;2023-07-20T06:39:26;3.80;;;2.27;;
15363;SDS011;7781;49.690;6.472;2023-07-20T06:41:58;13.53;;;3.00;;
15363;SDS011;7781;49.690;6.472;2023-07-20T06:44:27;2.67;;;2.20;;
15363;SDS011;7781;49.690;6.472;2023-07-20T06:46:56;4.37;;;2.40;;
15363;SDS011;7781;49.690;6.472;2023-07-20T06:49:27;3.83;;;1.87;;
15363;SDS011;7781;49.690;6.472;2023-07-20T06:51:56;7.73;;;2.63;;
15363;SDS011;7781;49.690;6.472;2023-07-20T06:54:24;5.63;;;2.40;;
15363;SDS011;7781;49.690;6.472;2023-07-20T06:56:52;4.43;;;2.40;;
15363;SDS011;7781;49.690;6.472;2023-07-20T06:59:24;3.80;;;2.40;;
15363;SDS011;7781;49.690;6.472;2023-07-20T07:01:52;4.43;;;2.40;;
15363;SDS011;7781;49.690;6.472;2023-07-20T07:04:21;7.57;;;2.27;;
15363;SDS011;7781;49.690;6.472;2023-07-20T07:06:52;5.60;;;3.40;;
15363;SDS011;7781;49.690;6.472;2023-07-20T07:09:20;3.67;;;2.33;;
15363;SDS011;7781;49.690;6.472;2023-07-20T07:11:49;7.27;;;2.33;;
15363;SDS011;7781;49.690;6.472;2023-07-20T07:14:19;3.00;;;2.40;;
15363;SDS011;7781;49.690;6.472;2023-07-20T07:16:51;8.80;;;2.90;;
15363;SDS011;7781;49.690;6.472;2023-07-20T07:19:25;11.53;;;2.97;;
15363;SDS011;7781;49.690;6.472;2023-07-20T07:21:58;6.70;;;2.90;;
15363;SDS011;7781;49.690;6.472;2023-07-20T07:24:27;3.60;;;2.37;;
15363;SDS011;7781;49.690;6.472;2023-07-20T07:27:01;3.93;;;2.00;;
15363;SDS011;7781;49.690;6.472;2023-07-20T07:29:30;3.03;;;2.10;;
15363;SDS011;7781;49.690;6.472;2023-07-20T07:31:59;4.53;;;2.67;;
15363;SDS011;7781;49.690;6.472;2023-07-20T07:34:29;5.43;;;2.30;;
15363;SDS011;7781;49.690;6.472;2023-07-20T07:37:02;6.27;;;2.53;;
15363;SDS011;7781;49.690;6.472;2023-07-20T07:39:33;6.73;;;2.30;;
15363;SDS011;7781;49.690;6.472;2023-07-20T07:42:02;6.40;;;2.23;;
15363;SDS011;7781;49.690;6.472;2023-07-20T07:44:32;7.53;;;2.40;;
15363;SDS011;7781;49.690;6.472;2023-07-20T07:47:00;5.10;;;2.40;;
15363;SDS011;7781;49.690;6.472;2023-07-20T07:49:29;4.80;;;2.30;;
15363;SDS011;7781;49.690;6.472;2023-07-20T07:51:58;7.37;;;2.27;;
15363;SDS011;7781;49.690;6.472;2023-07-20T07:54:30;3.40;;;2.20;;
15363;SDS011;7781;49.690;6.472;2023-07-20T07:56:58;7.57;;;2.50;;
15363;SDS011;7781;49.690;6.472;2023-07-20T07:59:27;3.00;;;2.20;;
15363;SDS011;7781;49.690;6.472;2023-07-20T08:01:58;9.57;;;3.30;;
15363;SDS011;7781;49.690;6.472;2023-07-20T08:04:27;2.70;;;2.50;;
15363;SDS011;7781;49.690;6.472;2023-07-20T08:06:55;9.90;;;2.70;;
15363;SDS011;7781;49.690;6.472;2023-07-20T08:09:25;4.13;;;2.03;;
15363;SDS011;7781;49.690;6.472;2023-07-20T08:11:55;6.77;;;2.70;;
15363;SDS011;7781;49.690;6.472;2023-07-20T08:14:24;9.10;;;2.40;;
15363;SDS011;7781;49.690;6.472;2023-07-20T08:16:52;7.50;;;2.23;;
15363;SDS011;7781;49.690;6.472;2023-07-20T08:19:21;6.63;;;1.87;;
15363;SDS011;7781;49.690;6.472;2023-07-20T08:21:52;6.60;;;2.60;;
15363;SDS011;7781;49.690;6.472;2023-07-20T08:24:21;6.07;;;2.80;;
15363;SDS011;7781;49.690;6.472;2023-07-20T08:26:49;3.10;;;2.40;;
15363;SDS011;7781;49.690;6.472;2023-07-20T08:29:19;3.63;;;2.30;;
15363;SDS011;7781;49.690;6.472;2023-07-20T08:31:48;4.73;;;1.83;;
15363;SDS011;7781;49.690;6.472;2023-07-20T08:34:16;5.73;;;2.13;;
15363;SDS011;7781;49.690;6.472;2023-07-20T08:36:56;3.10;;;1.83;;
15363;SDS011;7781;49.690;6.472;2023-07-20T08:39:25;2.53;;;1.87;;
15363;SDS011;7781;49.690;6.472;2023-07-20T08:41:54;4.63;;;2.13;;
15363;SDS011;7781;49.690;6.472;2023-07-20T08:44:28;6.27;;;2.13;;
15363;SDS011;7781;49.690;6.472;2023-07-20T08:46:57;3.07;;;2.00;;
15363;SDS011;7781;49.690;6.472;2023-07-20T08:49:27;7.80;;;2.60;;
15363;SDS011;7781;49.690;6.472;2023-07-20T08:51:56;3.80;;;2.13;;
15363;SDS011;7781;49.690;6.472;2023-07-20T08:54:27;2.33;;;1.80;;
15363;SDS011;7781;49.690;6.472;2023-07-20T08:57:02;7.93;;;2.23;;
15363;SDS011;7781;49.690;6.472;2023-07-20T08:59:33;3.10;;;2.17;;
15363;SDS011;7781;49.690;6.472;2023-07-20T09:02:04;4.10;;;2.40;;
15363;SDS011;7781;49.690;6.472;2023-07-20T09:04:44;6.47;;;2.10;;
15363;SDS011;7781;49.690;6.472;2023-07-20T09:07:13;2.60;;;1.83;;
15363;SDS011;7781;49.690;6.472;2023-07-20T09:09:42;5.00;;;1.80;;
15363;SDS011;7781;49.690;6.472;2023-07-20T09:12:14;3.33;;;1.73;;
15363;SDS011;7781;49.690;6.472;2023-07-20T09:14:44;4.30;;;2.20;;
15363;SDS011;7781;49.690;6.472;2023-07-20T09:17:13;2.90;;;2.00;;
15363;SDS011;7781;49.690;6.472;2023-07-20T09:19:46;4.87;;;1.90;;
15363;SDS011;7781;49.690;6.472;2023-07-20T09:22:15;4.97;;;2.30;;
15363;SDS011;7781;49.690;6.472;2023-07-20T09:24:44;11.60;;;2.00;;
15363;SDS011;7781;49.690;6.472;2023-07-20T09:27:13;4.47;;;2.10;;
15363;SDS011;7781;49.690;6.472;2023-07-20T09:29:49;5.17;;;2.50;;
15363;SDS011;7781;49.690;6.472;2023-07-20T09:32:18;4.90;;;2.43;;
15363;SDS011;7781;49.690;6.472;2023-07-20T09:34:51;3.20;;;1.80;;
15363;SDS011;7781;49.690;6.472;2023-07-20T09:37:20;3.77;;;2.30;;
15363;SDS011;7781;49.690;6.472;2023-07-20T09:39:51;5.13;;;2.03;;
15363;SDS011;7781;49.690;6.472;2023-07-20T09:42:23;6.03;;;2.27;;
15363;SDS011;7781;49.690;6.472;2023-07-20T09:44:58;4.13;;;1.93;;
15363;SDS011;7781;49.690;6.472;2023-07-20T09:47:27;4.97;;;2.10;;
15363;SDS011;7781;49.690;6.472;2023-07-20T09:49:58;5.03;;;2.30;;
15363;SDS011;7781;49.690;6.472;2023-07-20T09:52:30;8.97;;;2.60;;
15363;SDS011;7781;49.690;6.472;2023-07-20T09:55:02;2.33;;;2.13;;
15363;SDS011;7781;49.690;6.472;2023-07-20T09:57:32;3.13;;;1.70;;
15363;SDS011;7781;49.690;6.472;2023-07-20T10:00:03;3.17;;;2.17;;
15363;SDS011;7781;49.690;6.472;2023-07-20T10:02:42;2.00;;;1.80;;
15363;SDS011;7781;49.690;6.472;2023-07-20T10:05:12;2.30;;;1.43;;
15363;SDS011;7781;49.690;6.472;2023-07-20T10:07:43;2.50;;;1.70;;
15363;SDS011;7781;49.690;6.472;2023-07-20T10:10:15;1.70;;;1.60;;
15363;SDS011;7781;49.690;6.472;2023-07-20T10:12:46;2.97;;;1.43;;
15363;SDS011;7781;49.690;6.472;2023-07-20T10:15:18;3.20;;;2.03;;
15363;SDS011;7781;49.690;6.472;2023-07-20T10:17:57;2.93;;;1.90;;
15363;SDS011;7781;49.690;6.472;2023-07-20T10:20:32;4.37;;;2.30;;
15363;SDS011;7781;49.690;6.472;2023-07-20T10:23:03;7.43;;;1.97;;
15363;SDS011;7781;49.690;6.472;2023-07-20T10:25:32;2.93;;;1.90;;
15363;SDS011;7781;49.690;6.472;2023-07-20T10:28:04;2.60;;;1.70;;
15363;SDS011;7781;49.690;6.472;2023-07-20T10:30:36;1.87;;;1.67;;
15363;SDS011;7781;49.690;6.472;2023-07-20T10:33:05;1.80;;;1.30;;
15363;SDS011;7781;49.690;6.472;2023-07-20T10:35:50;2.30;;;1.30;;
15363;SDS011;7781;49.690;6.472;2023-07-20T10:38:19;2.43;;;1.73;;
15363;SDS011;7781;49.690;6.472;2023-07-20T10:40:54;4.97;;;1.80;;
15363;SDS011;7781;49.690;6.472;2023-07-20T10:43:23;1.73;;;1.50;;
15363;SDS011;7781;49.690;6.472;2023-07-20T10:45:54;4.23;;;1.80;;
15363;SDS011;7781;49.690;6.472;2023-07-20T10:48:23;3.77;;;1.77;;
15363;SDS011;7781;49.690;6.472;2023-07-20T10:53:36;5.73;;;1.70;;
15363;SDS011;7781;49.690;6.472;2023-07-20T10:56:06;2.40;;;1.70;;
15363;SDS011;7781;49.690;6.472;2023-07-20T10:58:35;1.93;;;1.60;;
15363;SDS011;7781;49.690;6.472;2023-07-20T11:01:05;2.93;;;1.57;;
15363;SDS011;7781;49.690;6.472;2023-07-20T11:03:34;2.70;;;1.50;;
15363;SDS011;7781;49.690;6.472;2023-07-20T11:09:04;1.67;;;1.40;;
15363;SDS011;7781;49.690;6.472;2023-07-20T11:11:35;4.73;;;1.40;;
15363;SDS011;7781;49.690;6.472;2023-07-20T11:14:05;2.83;;;1.50;;
15363;SDS011;7781;49.690;6.472;2023-07-20T11:16:43;2.17;;;1.33;;
15363;SDS011;7781;49.690;6.472;2023-07-20T11:19:16;2.03;;;1.40;;
15363;SDS011;7781;49.690;6.472;2023-07-20T11:21:49;3.50;;;1.50;;
15363;SDS011;7781;49.690;6.472;2023-07-20T11:24:28;3.23;;;1.30;;
15363;SDS011;7781;49.690;6.472;2023-07-20T11:26:57;1.80;;;1.23;;
15363;SDS011;7781;49.690;6.472;2023-07-20T11:29:26;2.03;;;1.23;;
15363;SDS011;7781;49.690;6.472;2023-07-20T11:32:00;2.50;;;1.10;;
15363;SDS011;7781;49.690;6.472;2023-07-20T11:34:32;1.40;;;1.30;;
15363;SDS011;7781;49.690;6.472;2023-07-20T11:37:01;1.70;;;1.37;;
15363;SDS011;7781;49.690;6.472;2023-07-20T11:39:33;1.60;;;1.33;;
15363;SDS011;7781;49.690;6.472;2023-07-20T11:42:03;2.87;;;1.30;;
15363;SDS011;7781;49.690;6.472;2023-07-20T11:44:32;2.43;;;1.63;;
15363;SDS011;7781;49.690;6.472;2023-07-20T11:47:03;1.77;;;1.40;;
15363;SDS011;7781;49.690;6.472;2023-07-20T11:49:34;2.00;;;1.37;;
15363;SDS011;7781;49.690;6.472;2023-07-20T11:52:06;1.27;;;1.17;;
15363;SDS011;7781;49.690;6.472;2023-07-20T11:54:36;2.10;;;1.00;;
15363;SDS011;7781;49.690;6.472;2023-07-20T11:57:15;1.30;;;1.20;;
15363;SDS011;7781;49.690;6.472;2023-07-20T11:59:52;1.20;;;1.10;;
15363;SDS011;7781;49.690;6.472;2023-07-20T12:02:22;2.03;;;1.10;;
15363;SDS011;7781;49.690;6.472;2023-07-20T12:04:54;1.20;;;1.10;;
15363;SDS011;7781;49.690;6.472;2023-07-20T12:07:23;2.10;;;1.10;;
15363;SDS011;7781;49.690;6.472;2023-07-20T12:10:03;1.90;;;1.10;;
15363;SDS011;7781;49.690;6.472;2023-07-20T12:12:32;1.10;;;1.00;;
15363;SDS011;7781;49.690;6.472;2023-07-20T12:15:14;1.73;;;1.20;;
15363;SDS011;7781;49.690;6.472;2023-07-20T12:17:45;1.80;;;1.00;;
15363;SDS011;7781;49.690;6.472;2023-07-20T12:20:24;1.30;;;1.20;;
15363;SDS011;7781;49.690;6.472;2023-07-20T12:22:55;1.13;;;1.00;;
15363;SDS011;7781;49.690;6.472;2023-07-20T12:25:31;1.83;;;1.20;;
15363;SDS011;7781;49.690;6.472;2023-07-20T12:28:01;1.37;;;0.83;;
15363;SDS011;7781;49.690;6.472;2023-07-20T12:30:30;2.07;;;0.90;;
15363;SDS011;7781;49.690;6.472;2023-07-20T12:33:01;2.20;;;1.10;;
15363;SDS011;7781;49.690;6.472;2023-07-20T12:35:31;1.20;;;1.10;;
15363;SDS011;7781;49.690;6.472;2023-07-20T12:38:00;1.40;;;1.00;;
15363;SDS011;7781;49.690;6.472;2023-07-20T12:40:29;3.00;;;1.13;;
15363;SDS011;7781;49.690;6.472;2023-07-20T12:42:58;1.40;;;1.00;;
15363;SDS011;7781;49.690;6.472;2023-07-20T12:45:27;1.10;;;1.00;;
15363;SDS011;7781;49.690;6.472;2023-07-20T12:47:58;2.70;;;1.57;;
15363;SDS011;7781;49.690;6.472;2023-07-20T12:50:27;3.03;;;1.10;;
15363;SDS011;7781;49.690;6.472;2023-07-20T12:52:56;1.87;;;1.03;;
15363;SDS011;7781;49.690;6.472;2023-07-20T12:55:25;2.30;;;1.20;;
15363;SDS011;7781;49.690;6.472;2023-07-20T12:57:54;1.17;;;1.00;;
15363;SDS011;7781;49.690;6.472;2023-07-20T13:00:24;2.43;;;1.10;;
15363;SDS011;7781;49.690;6.472;2023-07-20T13:02:53;3.83;;;1.17;;
15363;SDS011;7781;49.690;6.472;2023-07-20T13:05:24;1.80;;;1.00;;
15363;SDS011;7781;49.690;6.472;2023-07-20T13:07:57;1.60;;;1.10;;
15363;SDS011;7781;49.690;6.472;2023-07-20T13:10:29;2.80;;;1.10;;
15363;SDS011;7781;49.690;6.472;2023-07-20T13:12:58;1.27;;;0.90;;
15363;SDS011;7781;49.690;6.472;2023-07-20T13:15:29;1.27;;;0.90;;
15363;SDS011;7781;49.690;6.472;2023-07-20T13:17:59;1.20;;;0.90;;
15363;SDS011;7781;49.690;6.472;2023-07-20T13:20:28;2.30;;;0.97;;
15363;SDS011;7781;49.690;6.472;2023-07-20T13:22:58;1.27;;;1.00;;
15363;SDS011;7781;49.690;6.472;2023-07-20T13:25:27;1.50;;;1.00;;
15363;SDS011;7781;49.690;6.472;2023-07-20T13:27:56;3.30;;;1.10;;
15363;SDS011;7781;49.690;6.472;2023-07-20T13:30:25;1.37;;;0.90;;
15363;SDS011;7781;49.690;6.472;2023-07-20T13:32:53;1.13;;;1.00;;
15363;SDS011;7781;49.690;6.472;2023-07-20T13:35:22;1.30;;;0.90;;
15363;SDS011;7781;49.690;6.472;2023-07-20T13:37:50;1.20;;;0.97;;
15363;SDS011;7781;49.690;6.472;2023-07-20T13:40:21;1.73;;;1.30;;
15363;SDS011;7781;49.690;6.472;2023-07-20T13:42:50;1.23;;;1.03;;
15363;SDS011;7781;49.690;6.472;2023-07-20T13:45:19;1.37;;;1.10;;
15363;SDS011;7781;49.690;6.472;2023-07-20T13:47:49;1.23;;;1.00;;
15363;SDS011;7781;49.690;6.472;2023-07-20T13:50:19;1.40;;;1.10;;
15363;SDS011;7781;49.690;6.472;2023-07-20T13:52:52;1.20;;;1.03;;
15363;SDS011;7781;49.690;6.472;2023-07-20T13:55:42;1.30;;;0.90;;
15363;SDS011;7781;49.690;6.472;2023-07-20T13:58:13;1.20;;;0.97;;
15363;SDS011;7781;49.690;6.472;2023-07-20T14:00:43;1.17;;;1.00;;
15363;SDS011;7781;49.690;6.472;2023-07-20T14:03:12;1.63;;;1.03;;
15363;SDS011;7781;49.690;6.472;2023-07-20T14:05:43;1.20;;;1.10;;
15363;SDS011;7781;49.690;6.472;2023-07-20T14:08:15;1.63;;;1.17;;
15363;SDS011;7781;49.690;6.472;2023-07-20T14:10:46;1.20;;;1.00;;
15363;SDS011;7781;49.690;6.472;2023-07-20T14:13:19;1.10;;;1.00;;
15363;SDS011;7781;49.690;6.472;2023-07-20T14:16:07;3.57;;;1.40;;
15363;SDS011;7781;49.690;6.472;2023-07-20T14:18:36;2.20;;;0.90;;
15363;SDS011;7781;49.690;6.472;2023-07-20T14:21:07;3.10;;;1.30;;
15363;SDS011;7781;49.690;6.472;2023-07-20T14:23:35;1.63;;;1.30;;
15363;SDS011;7781;49.690;6.472;2023-07-20T14:26:06;2.00;;;1.00;;
15363;SDS011;7781;49.690;6.472;2023-07-20T14:28:48;1.93;;;1.00;;
15363;SDS011;7781;49.690;6.472;2023-07-20T14:31:19;2.73;;;1.10;;
15363;SDS011;7781;49.690;6.472;2023-07-20T14:33:48;2.50;;;1.10;;
15363;SDS011;7781;49.690;6.472;2023-07-20T14:36:18;1.20;;;1.10;;
15363;SDS011;7781;49.690;6.472;2023-07-20T14:38:47;1.57;;;1.47;;
15363;SDS011;7781;49.690;6.472;2023-07-20T14:41:18;1.33;;;1.10;;
15363;SDS011;7781;49.690;6.472;2023-07-20T14:43:47;1.43;;;1.10;;
15363;SDS011;7781;49.690;6.472;2023-07-20T14:46:16;3.47;;;1.13;;
15363;SDS011;7781;49.690;6.472;2023-07-20T14:48:48;2.20;;;1.23;;
15363;SDS011;7781;49.690;6.472;2023-07-20T14:51:19;1.50;;;1.40;;
15363;SDS011;7781;49.690;6.472;2023-07-20T14:53:47;1.20;;;1.03;;
15363;SDS011;7781;49.690;6.472;2023-07-20T14:56:17;1.37;;;1.07;;
15363;SDS011;7781;49.690;6.472;2023-07-20T14:58:46;3.77;;;1.40;;
15363;SDS011;7781;49.690;6.472;2023-07-20T15:01:14;2.07;;;1.13;;
15363;SDS011;7781;49.690;6.472;2023-07-20T15:03:43;1.00;;;0.90;;
15363;SDS011;7781;49.690;6.472;2023-07-20T15:06:11;1.20;;;1.10;;
15363;SDS011;7781;49.690;6.472;2023-07-20T15:08:40;2.83;;;1.20;;
15363;SDS011;7781;49.690;6.472;2023-07-20T15:11:11;3.63;;;1.37;;
15363;SDS011;7781;49.690;6.472;2023-07-20T15:13:42;1.07;;;0.97;;
15363;SDS011;7781;49.690;6.472;2023-07-20T15:16:11;2.23;;;1.20;;
15363;SDS011;7781;49.690;6.472;2023-07-20T15:18:40;1.57;;;1.20;;
15363;SDS011;7781;49.690;6.472;2023-07-20T15:21:14;1.43;;;1.10;;
15363;SDS011;7781;49.690;6.472;2023-07-20T15:23:43;0.83;;;0.83;;
15363;SDS011;7781;49.690;6.472;2023-07-20T15:26:12;2.20;;;1.20;;
15363;SDS011;7781;49.690;6.472;2023-07-20T15:28:43;1.53;;;1.10;;
15363;SDS011;7781;49.690;6.472;2023-07-20T15:31:12;1.40;;;1.23;;
15363;SDS011;7781;49.690;6.472;2023-07-20T15:33:41;2.60;;;1.10;;